createdAt,value
2022-09-26T00:00:48.469Z,92220.47
2022-09-26T00:05:50.605Z,92185.75
2022-09-26T00:10:58.414Z,92211.38
2022-09-26T00:16:00.554Z,92194.97
2022-09-26T00:21:10.979Z,92217.47
2022-09-26T00:26:15.013Z,92223.06
2022-09-26T00:31:25.070Z,92214.88
2022-09-26T00:36:37.643Z,92207.00
2022-09-26T00:41:41.267Z,92198.91
2022-09-26T00:46:48.267Z,92202.84
2022-09-26T00:51:58.868Z,92186.16
2022-09-26T00:57:06.672Z,92195.78
2022-09-26T01:02:10.339Z,92195.56
2022-09-26T01:07:18.149Z,92192.22
2022-09-26T01:12:22.252Z,92199.97
2022-09-26T01:17:25.386Z,92191.97
2022-09-26T01:22:31.189Z,92182.22
2022-09-26T01:27:45.579Z,92178.34
2022-09-26T01:33:07.938Z,92178.09
2022-09-26T01:38:59.493Z,92161.28
2022-09-26T01:44:23.064Z,92162.50
2022-09-26T01:49:35.109Z,92154.97
2022-09-26T01:54:43.161Z,92157.00
2022-09-26T01:59:55.294Z,92165.22
2022-09-26T02:05:03.238Z,92151.81
2022-09-26T02:10:14.964Z,92147.56
2022-09-26T02:15:20.544Z,92137.09
2022-09-26T02:20:30.983Z,92119.16
2022-09-26T02:25:34.538Z,92112.59
2022-09-26T02:30:40.674Z,92129.06
2022-09-26T02:35:55.932Z,92111.22
2022-09-26T02:41:18.864Z,92112.78
2022-09-26T02:46:40.485Z,92116.59
2022-09-26T02:51:50.181Z,92112.72
2022-09-26T02:57:09.152Z,92111.91
2022-09-26T03:02:23.158Z,92110.13
2022-09-26T03:08:15.413Z,92113.75
2022-09-26T03:13:20.429Z,92109.88
2022-09-26T03:18:28.633Z,92069.38
2022-09-26T03:23:30.985Z,92067.69
2022-09-26T03:28:38.289Z,92077.09
2022-09-26T03:33:41.021Z,92082.75
2022-09-26T03:38:43.423Z,92087.38
2022-09-26T03:44:03.191Z,92080.78
2022-09-26T03:49:25.304Z,92085.69
2022-09-26T03:54:27.887Z,92079.91
2022-09-26T03:59:30.200Z,92074.34
2022-09-26T04:04:33.366Z,92071.66
2022-09-26T04:09:35.784Z,92065.81
2022-09-26T04:14:38.233Z,92060.84
2022-09-26T04:19:40.587Z,92047.09
2022-09-26T04:24:42.754Z,92052.03
2022-09-26T04:29:45.352Z,92045.78
2022-09-26T04:35:01.915Z,92043.09
2022-09-26T04:40:04.830Z,92033.00
2022-09-26T04:45:11.114Z,92040.75
2022-09-26T04:50:13.527Z,92022.31
2022-09-26T04:55:16.923Z,92012.44
2022-09-26T05:00:19.154Z,92023.19
2022-09-26T05:05:21.461Z,92022.66
2022-09-26T05:10:23.762Z,92019.16
2022-09-26T05:15:31.345Z,92016.34
2022-09-26T05:20:38.322Z,92009.44
2022-09-26T05:26:00.566Z,92000.91
2022-09-26T05:31:03.644Z,92004.59
2022-09-26T05:36:08.467Z,92006.22
2022-09-26T05:41:11.258Z,91993.91
2022-09-26T05:46:15.378Z,92025.66
2022-09-26T05:51:23.539Z,92010.59
2022-09-26T05:56:25.980Z,92016.41
2022-09-26T06:01:58.335Z,92014.22
2022-09-26T06:07:15.331Z,91990.72
2022-09-26T06:12:19.694Z,92015.06
2022-09-26T06:17:21.870Z,92015.59
2022-09-26T06:22:24.648Z,92006.34
2022-09-26T06:27:26.904Z,92002.44
2022-09-26T06:32:29.367Z,91992.13
2022-09-26T06:38:07.261Z,91993.91
2022-09-26T06:43:10.223Z,91991.34
2022-09-26T06:48:44.615Z,91999.28
2022-09-26T06:54:05.226Z,92005.69
2022-09-26T06:59:07.761Z,92013.88
2022-09-26T07:04:15.838Z,92013.66
2022-09-26T07:09:21.311Z,92011.06
2022-09-26T07:14:31.682Z,92001.25
2022-09-26T07:19:40.693Z,91985.84
2022-09-26T07:24:50.287Z,91978.44
2022-09-26T07:29:52.875Z,91978.38
2022-09-26T07:34:56.465Z,91977.13
2022-09-26T07:40:01.611Z,91989.84
2022-09-26T07:45:29.101Z,91974.75
2022-09-26T07:50:28.789Z,91986.09
2022-09-26T07:55:59.730Z,91997.56
2022-09-26T08:01:17.253Z,91987.34
2022-09-26T08:06:42.215Z,91982.75
2022-09-26T08:11:45.250Z,91992.88
2022-09-26T08:17:02.090Z,91989.72
2022-09-26T08:22:07.733Z,91969.69
2022-09-26T08:27:10.302Z,91994.63
2022-09-26T08:32:18.245Z,91998.91
2022-09-26T08:37:21.158Z,91986.31
2022-09-26T08:43:02.719Z,91996.28
2022-09-26T08:49:03.028Z,92001.59
2022-09-26T08:54:15.087Z,91995.91
2022-09-26T08:59:39.983Z,91988.81
2022-09-26T09:04:54.158Z,91985.16
2022-09-26T09:10:03.229Z,91976.03
2022-09-26T09:15:55.667Z,91972.44
2022-09-26T09:21:26.606Z,91957.28
2022-09-26T09:32:23.785Z,91958.44
2022-09-26T09:37:49.810Z,91960.28
2022-09-26T09:43:06.589Z,91960.69
2022-09-26T09:48:12.315Z,91943.06
2022-09-26T09:53:14.625Z,91949.19
2022-09-26T09:59:12.488Z,91957.09
2022-09-26T10:04:50.104Z,91948.75
2022-09-26T10:09:53.449Z,91941.09
2022-09-26T10:15:27.697Z,91949.09
2022-09-26T10:20:54.709Z,91935.09
2022-09-26T10:26:04.397Z,91947.13
2022-09-26T10:31:12.966Z,91951.56
2022-09-26T10:36:42.519Z,91928.34
2022-09-26T10:41:47.176Z,91945.47
2022-09-26T10:46:56.616Z,91945.31
2022-09-26T10:52:38.680Z,91935.59
2022-09-26T10:57:54.276Z,91922.81
2022-09-26T11:02:58.145Z,91941.63
2022-09-26T11:08:05.615Z,91935.31
2022-09-26T11:13:18.419Z,91923.06
2022-09-26T11:18:53.975Z,91917.00
2022-09-26T11:24:05.190Z,91916.69
2022-09-26T11:29:49.780Z,91902.94
2022-09-26T11:35:02.587Z,91904.72
2022-09-26T11:40:40.454Z,91891.59
2022-09-26T11:45:57.991Z,91887.75
2022-09-26T11:51:33.322Z,91873.75
2022-09-26T11:56:54.224Z,91874.56
2022-09-26T12:02:34.498Z,91871.59
2022-09-26T12:07:59.106Z,91852.19
2022-09-26T12:13:17.307Z,91855.91
2022-09-26T12:18:43.689Z,91844.09
2022-09-26T12:23:49.182Z,91840.94
2022-09-26T12:29:09.585Z,91836.72
2022-09-26T12:34:26.001Z,91838.66
2022-09-26T12:39:47.464Z,91835.41
2022-09-26T12:45:26.961Z,91834.31
2022-09-26T12:50:40.997Z,91818.72
2022-09-26T12:55:43.921Z,91810.56
2022-09-26T13:01:12.137Z,91805.84
2022-09-26T13:06:25.682Z,91808.34
2022-09-26T13:11:45.868Z,91725.47
2022-09-26T13:17:06.044Z,91794.66
2022-09-26T13:22:13.929Z,91799.94
2022-09-26T13:27:22.249Z,91783.81
2022-09-26T13:32:34.944Z,91786.56
2022-09-26T13:37:56.635Z,91787.78
2022-09-26T13:43:10.630Z,91780.06
2022-09-26T13:48:46.548Z,91762.66
2022-09-26T13:54:05.347Z,91770.09
2022-09-26T13:59:18.039Z,91784.91
2022-09-26T14:04:36.029Z,91772.69
2022-09-26T14:09:52.902Z,91768.19
2022-09-26T14:15:16.228Z,91778.16
2022-09-26T14:20:31.722Z,91766.38
2022-09-26T14:25:45.937Z,91749.28
2022-09-26T14:31:11.324Z,91754.22
2022-09-26T14:36:35.405Z,91761.59
2022-09-26T14:41:41.658Z,91744.69
2022-09-26T14:46:44.444Z,91744.91
2022-09-26T14:51:49.469Z,91737.88
2022-09-26T14:57:00.357Z,91739.19
2022-09-26T15:02:15.204Z,91740.94
2022-09-26T15:07:22.983Z,91733.75
2022-09-26T15:12:39.300Z,91725.91
2022-09-26T15:17:48.799Z,91734.31
2022-09-26T15:22:54.063Z,91725.31
2022-09-26T15:27:56.738Z,91699.66
2022-09-26T15:33:04.351Z,91737.34
2022-09-26T15:38:13.195Z,91731.28
2022-09-26T15:43:22.477Z,91735.63
2022-09-26T15:48:29.166Z,91727.41
2022-09-26T15:53:40.341Z,91726.75
2022-09-26T15:58:48.449Z,91741.06
2022-09-26T16:04:02.447Z,91733.97
2022-09-26T16:09:13.691Z,91729.59
2022-09-26T16:14:46.559Z,91725.06
2022-09-26T16:19:53.090Z,91718.28
2022-09-26T16:25:21.145Z,91719.28
2022-09-26T16:30:27.829Z,91713.53
2022-09-26T16:35:33.663Z,91722.31
2022-09-26T16:40:36.408Z,91725.94
2022-09-26T16:45:51.258Z,91720.97
2022-09-26T16:51:31.335Z,91720.97
2022-09-26T16:56:38.786Z,91734.34
2022-09-26T17:01:56.293Z,91742.19
2022-09-26T17:07:10.737Z,91743.91
2022-09-26T17:12:20.499Z,91725.22
2022-09-26T17:17:25.811Z,91751.06
2022-09-26T17:22:28.689Z,91749.19
2022-09-26T17:27:38.530Z,91740.69
2022-09-26T17:32:44.237Z,91735.56
2022-09-26T17:37:46.327Z,91742.69
2022-09-26T17:42:48.842Z,91747.66
2022-09-26T17:47:59.779Z,91721.41
2022-09-26T17:53:02.771Z,91735.97
2022-09-26T17:58:10.322Z,91737.00
2022-09-26T18:03:21.408Z,91725.97
2022-09-26T18:08:33.838Z,91732.00
2022-09-26T18:13:39.497Z,91723.53
2022-09-26T18:18:41.598Z,91717.66
2022-09-26T18:23:49.704Z,91716.78
2022-09-26T18:28:52.111Z,91717.53
2022-09-26T18:33:56.101Z,91722.75
2022-09-26T18:38:58.579Z,91708.94
2022-09-26T18:44:02.887Z,91711.31
2022-09-26T18:49:06.449Z,91715.91
2022-09-26T18:54:14.974Z,91723.47
2022-09-26T18:59:17.360Z,91701.94
2022-09-26T19:04:22.347Z,91708.28
2022-09-26T19:09:34.080Z,91723.91
2022-09-26T19:14:41.541Z,91736.63
2022-09-26T19:19:43.598Z,91744.22
2022-09-26T19:24:47.937Z,91736.16
2022-09-26T19:30:14.245Z,91736.75
2022-09-26T19:35:32.449Z,91738.44
2022-09-26T19:40:34.968Z,91718.00
2022-09-26T19:45:38.606Z,91743.75
2022-09-26T19:50:41.664Z,91729.22
2022-09-26T19:55:44.384Z,91733.25
2022-09-26T20:00:53.059Z,91723.81
2022-09-26T20:05:55.249Z,91720.66
2022-09-26T20:10:57.893Z,91709.63
2022-09-26T20:16:00.023Z,91695.38
2022-09-26T20:21:02.596Z,91681.69
2022-09-26T20:26:08.549Z,91664.91
2022-09-26T20:31:24.509Z,91670.56
2022-09-26T20:36:32.296Z,91658.28
2022-09-26T20:41:38.773Z,91649.22
2022-09-26T20:46:50.657Z,91643.22
2022-09-26T20:51:53.607Z,91598.41
2022-09-26T20:56:57.643Z,91637.69
2022-09-26T21:02:01.565Z,91620.53
2022-09-26T21:07:03.712Z,91601.22
2022-09-26T21:12:15.007Z,91615.88
2022-09-26T21:17:27.017Z,91610.97
2022-09-26T21:22:29.678Z,91606.09
2022-09-26T21:27:31.774Z,91600.56
2022-09-26T21:32:34.671Z,91602.16
2022-09-26T21:37:36.880Z,91608.69
2022-09-26T21:42:41.504Z,91614.34
2022-09-26T21:47:43.790Z,91626.34
2022-09-26T21:52:51.101Z,91621.81
2022-09-26T21:57:55.492Z,91623.38
2022-09-26T22:03:00.974Z,91626.78
2022-09-26T22:08:03.788Z,91623.16
2022-09-26T22:13:06.058Z,91614.56
2022-09-26T22:18:08.145Z,91606.31
2022-09-26T22:23:10.389Z,91617.38
2022-09-26T22:28:12.490Z,91613.06
2022-09-26T22:33:14.874Z,91578.09
2022-09-26T22:38:18.314Z,91594.00
2022-09-26T22:43:21.292Z,91595.41
2022-09-26T22:48:23.745Z,91580.19
2022-09-26T22:53:26.022Z,91583.22
2022-09-26T22:58:28.203Z,91573.16
2022-09-26T23:03:30.380Z,91551.84
2022-09-26T23:08:34.306Z,91563.69
2022-09-26T23:13:36.499Z,91554.44
2022-09-26T23:18:40.864Z,91538.66
2022-09-26T23:23:45.305Z,91549.88
2022-09-26T23:28:47.569Z,91538.91
2022-09-26T23:33:49.818Z,91512.47
2022-09-26T23:38:52.182Z,91542.53
2022-09-26T23:43:54.272Z,91530.81
2022-09-26T23:48:56.413Z,91521.72
2022-09-26T23:53:58.615Z,91504.16
2022-09-26T23:59:00.809Z,91525.47
